St Helen — SVCC4 — position and weather

sailwx.info

Track history (hours):
 
Tides and Currents Weather Stations Pressure Air Temp Water Temp Dewpoint Dewpoint Depression Visibility Wind Speed Wind Dir Waves Ship Positions

St Helen

Last reported at 2018-May-20 00:03 UTC. Time now 2018-Jul-16 00:53 UTC.
Position N 37°37' W 073°47'.
Warning: this ship's position is 57 days out of date.

Length 243 m; draft 8.1 m.

Type: Tanker. MMSI: 241357000.

Date/timePositionNaut miles runAvg speedWind from/ knotsBaromVisibWave heightAir tempDewpointWater temp
2018-May-20 00:03N 37°37' W 073°47'211.6
2018-May-19 23:52N 37°39' W 073°49'411.0
2018-May-19 23:28N 37°42' W 073°52'8711.8
2018-May-19 16:07N 38°48' W 075°04'111.0
2018-May-19 16:00N 38°50' W 075°05'510.2
2018-May-19 15:30N 38°55' W 075°06'612.7
2018-May-19 15:00N 39°01' W 075°09'612.7
2018-May-19 14:30N 39°06' W 075°12'713.2
2018-May-19 14:01N 39°12' W 075°17'713.3
2018-May-19 13:30N 39°17' W 075°22'815.3
2018-May-19 13:01N 39°23' W 075°28'815.2
2018-May-19 12:30N 39°29' W 075°34'612.8
2018-May-19 12:00N 39°36' W 075°34'611.7
2018-May-19 11:31N 39°41' W 075°31'613.0
2018-May-19 11:00N 39°47' W 075°28'5 9.0
2018-May-19 10:30N 39°49' W 075°23'5 9.7
2018-May-19 10:00N 39°51' W 075°17'3 5.9
2018-May-19 09:30N 39°52' W 075°13'0 0.1
2018-May-19 09:00N 39°52' W 075°13'0 0.0
2018-May-19 08:30N 39°52' W 075°13'0 0.0
2018-May-19 08:00N 39°52' W 075°13'0 0.0
2018-May-19 07:30N 39°52' W 075°13'0 0.0
2018-May-19 07:00N 39°52' W 075°13'0 0.0
2018-May-19 06:30N 39°52' W 075°13'0 0.0
2018-May-19 06:00N 39°52' W 075°13'0 0.0
2018-May-19 05:30N 39°52' W 075°13'0 0.0
2018-May-19 05:00N 39°52' W 075°13'0 0.0
2018-May-19 04:30N 39°52' W 075°13'0 0.0
2018-May-19 04:00N 39°52' W 075°13'0 0.0
2018-May-19 03:30N 39°52' W 075°13'0 0.0
2018-May-19 03:00N 39°52' W 075°13'0 0.0
2018-May-19 02:30N 39°52' W 075°13'0 0.0
2018-May-19 02:00N 39°52' W 075°13'0 0.0
2018-May-19 01:30N 39°52' W 075°13'0 0.0
2018-May-19 01:00N 39°52' W 075°13'0 0.0
2018-May-19 00:30N 39°52' W 075°13'0 0.0
2018-May-19 00:00N 39°52' W 075°13'0 0.0
2018-May-18 23:30N 39°52' W 075°13'0 0.0
2018-May-18 23:00N 39°52' W 075°13'0 0.0
2018-May-18 22:30N 39°52' W 075°13'0 0.1
2018-May-18 22:00N 39°52' W 075°13'0 0.1
2018-May-18 21:30N 39°52' W 075°13'0 0.0
2018-May-18 20:48N 39°52' W 075°13'0 0.0
2018-May-18 20:30N 39°52' W 075°13'0 0.0
2018-May-18 19:57N 39°52' W 075°13'0 0.0
2018-May-18 19:30N 39°52' W 075°13'0 0.0
2018-May-18 19:00N 39°52' W 075°13'0 0.0
2018-May-18 18:30N 39°52' W 075°13'0 0.0
2018-May-18 18:00N 39°52' W 075°13'0 0.0
2018-May-18 17:30N 39°52' W 075°13'0 0.0
2018-May-18 17:00N 39°52' W 075°13'0 0.0
2018-May-18 16:30N 39°52' W 075°13'0 0.0
2018-May-18 16:00N 39°52' W 075°13'0 0.0
2018-May-18 15:30N 39°52' W 075°13'0 0.0
2018-May-18 14:57N 39°52' W 075°13'0 0.0
2018-May-18 14:30N 39°52' W 075°13'0 0.0
2018-May-18 14:00N 39°52' W 075°13'0 0.0
2018-May-18 13:30N 39°52' W 075°13'0 0.0
2018-May-18 13:00N 39°52' W 075°13'0 0.0
2018-May-18 12:30N 39°52' W 075°13'0 0.0
2018-May-18 12:00N 39°52' W 075°13'0 0.0
2018-May-18 11:27N 39°52' W 075°13'0 0.0
2018-May-18 11:00N 39°52' W 075°13'0 0.0
2018-May-18 10:30N 39°52' W 075°13'0 0.0
2018-May-18 10:00N 39°52' W 075°13'0 0.0
2018-May-18 09:30N 39°52' W 075°13'0 0.0
2018-May-18 09:00N 39°52' W 075°13'0 0.0
2018-May-18 08:30N 39°52' W 075°13'0 0.0
2018-May-18 08:00N 39°52' W 075°13'0 0.0
2018-May-18 07:30N 39°52' W 075°13'0 0.0
2018-May-18 07:00N 39°52' W 075°13'0 0.5
2018-May-18 06:30N 39°52' W 075°13'1 2.9
2018-May-18 06:01N 39°51' W 075°15'3 6.0
2018-May-18 05:30N 39°51' W 075°19'4 7.1
2018-May-18 05:00N 39°49' W 075°23'3 7.0
2018-May-18 04:30N 39°47' W 075°27'4 7.0
2018-May-18 04:00N 39°45' W 075°30'4 7.9
2018-May-18 03:30N 39°41' W 075°31'5 9.8
2018-May-18 03:00N 39°37' W 075°35'610.6
2018-May-18 02:28N 39°31' W 075°33'510.3
2018-May-18 02:01N 39°27' W 075°33'611.4
2018-May-18 01:30N 39°22' W 075°28'612.5
2018-May-18 01:00N 39°18' W 075°23'612.8
2018-May-18 00:30N 39°13' W 075°17'714.1
2018-May-18 00:00N 39°07' W 075°13'713.8
2018-May-17 23:30N 39°01' W 075°09'713.0
2018-May-17 22:59N 38°54' W 075°06'4 8.8
2018-May-17 22:30N 38°56' W 075°11'3 5.3
2018-May-17 22:00N 38°59' W 075°12'0 0.0
2018-May-17 21:30N 38°59' W 075°12'0 0.0
2018-May-17 21:00N 38°59' W 075°12'0 0.1
2018-May-17 20:27N 38°59' W 075°12'0 0.1
2018-May-17 20:00N 38°59' W 075°12'0 0.0
2018-May-17 19:30N 38°59' W 075°12'0 0.0
2018-May-17 19:00N 38°59' W 075°12'0 0.0
2018-May-17 18:21N 38°59' W 075°12'0 0.0
2018-May-17 18:00N 38°59' W 075°12'0 0.1
2018-May-17 17:30N 38°59' W 075°12'0 0.5
2018-May-17 17:00N 38°59' W 075°12'0 0.1
2018-May-17 16:27N 38°59' W 075°12'0 0.1
2018-May-17 15:57N 38°59' W 075°12'0 0.0
2018-May-17 15:27N 38°59' W 075°12'0 0.0
2018-May-17 14:57N 38°59' W 075°12'0 0.0
2018-May-17 14:30N 38°59' W 075°12'0 0.0
2018-May-17 13:57N 38°59' W 075°12'0 0.0
2018-May-17 13:30N 38°59' W 075°12'0 0.1
2018-May-17 12:57N 38°59' W 075°12'0 0.2
2018-May-17 12:30N 38°59' W 075°12'0 0.1
2018-May-17 11:54N 38°59' W 075°12'0 0.3
2018-May-17 11:24N 38°59' W 075°12'0 0.3
2018-May-17 11:00N 38°59' W 075°12'0 0.1
2018-May-17 10:30N 38°59' W 075°12'0 0.1
2018-May-17 09:48N 38°59' W 075°12'0 0.1
2018-May-17 09:27N 38°59' W 075°12'0 0.0
2018-May-17 08:42N 38°59' W 075°12'0 0.0
2018-May-17 08:18N 38°59' W 075°12'0 0.0
2018-May-17 08:00N 38°59' W 075°12'0 0.0
2018-May-17 07:27N 38°59' W 075°12'0 0.1
2018-May-17 07:00N 38°59' W 075°12'0 0.1
2018-May-17 06:30N 38°59' W 075°12'0 0.0
2018-May-17 06:00N 38°59' W 075°12'0 0.0
2018-May-17 05:30N 38°59' W 075°12'0 0.4
2018-May-17 05:00N 38°59' W 075°12'0 0.3
2018-May-17 04:30N 38°59' W 075°12'0 0.0
2018-May-17 03:39N 38°59' W 075°12'0 0.1
2018-May-17 03:27N 38°59' W 075°12'0 0.0
2018-May-17 02:57N 38°59' W 075°12'0 0.0
2018-May-17 02:27N 38°59' W 075°12'0 0.0
2018-May-17 01:57N 38°59' W 075°12'0 0.0
2018-May-17 01:30N 38°59' W 075°13'0 0.0
2018-May-17 01:00N 38°59' W 075°12'0 0.1
2018-May-17 00:30N 38°59' W 075°12'0 0.0
2018-May-16 23:57N 38°59' W 075°12'0 0.1
2018-May-16 23:30N 38°59' W 075°12'0 0.0
2018-May-16 23:00N 38°59' W 075°12'0 0.1
2018-May-16 22:30N 38°59' W 075°12'0 0.4
2018-May-16 22:00N 38°59' W 075°12'0 0.1
2018-May-16 21:30N 38°59' W 075°12'0 0.1
2018-May-16 21:00N 38°59' W 075°12'0 0.0
2018-May-16 20:30N 38°59' W 075°12'0 0.0
2018-May-16 20:00N 38°59' W 075°12'0 0.0
2018-May-16 19:30N 38°59' W 075°12'0 0.0
2018-May-16 18:57N 38°59' W 075°12'0 0.0
2018-May-16 18:30N 38°59' W 075°12'0 0.1
2018-May-16 17:57N 38°59' W 075°12'0 0.1
2018-May-16 17:30N 38°59' W 075°12'0 0.0
2018-May-16 17:00N 38°59' W 075°12'0 0.2
2018-May-16 16:30N 38°59' W 075°12'0 0.4
2018-May-16 16:00N 38°59' W 075°12'0 0.0
2018-May-16 15:30N 38°59' W 075°12'0 0.1
2018-May-16 15:00N 38°59' W 075°12'0 0.0
2018-May-15 22:49N 38°59' W 075°12'0 0.0
2018-May-15 22:24N 38°59' W 075°12'0 0.1
2018-May-15 22:00N 38°59' W 075°12'0 0.1
2018-May-15 21:30N 38°59' W 075°12'0 0.4
2018-May-15 20:58N 38°59' W 075°12'0 0.3
2018-May-15 20:22N 38°59' W 075°12'0 0.1
2018-May-15 19:57N 38°59' W 075°12'0 0.1
2018-May-15 19:30N 38°59' W 075°12'0 0.1
2018-May-15 18:57N 38°59' W 075°12'0 0.0
2018-May-15 18:24N 38°59' W 075°12'0 0.0
2018-May-15 18:00N 38°59' W 075°12'0 0.0
2018-May-15 17:30N 38°59' W 075°12'0 0.1
2018-May-15 16:54N 38°59' W 075°12'0 0.0
2018-May-15 16:30N 38°59' W 075°12'0 0.1
2018-May-15 16:00N 38°59' W 075°12'0 0.1
2018-May-15 15:30N 38°59' W 075°12'0 0.5
2018-May-15 15:00N 38°59' W 075°12'2 4.8
2018-May-15 14:30N 38°56' W 075°11'4 7.4
2018-May-15 13:57N 38°53' W 075°08'7 9.9
2018-May-15 13:16N 38°48' W 075°02'2 8.1
2018-May-15 13:00N 38°46' W 074°60'16 6.5
2018-May-15 10:33N 38°35' W 074°47'3 9.9
2018-May-15 10:17N 38°33' W 074°45'412.7
2018-May-15 09:58N 38°29' W 074°41'510.7
2018-May-15 09:30N 38°26' W 074°37'3 5.8
2018-May-15 09:00N 38°24' W 074°34'612.7
2018-May-15 08:30N 38°20' W 074°28'612.5
2018-May-15 08:00N 38°16' W 074°21'612.1
2018-May-15 07:30N 38°14' W 074°14'  
Track history (hours):
 
Tides and Currents Weather Stations Pressure Air Temp Water Temp Dewpoint Dewpoint Depression Visibility Wind Speed Wind Dir Waves Ship Positions

St Helen

Last reported at 2018-May-20 00:03 UTC. Time now 2018-Jul-16 00:53 UTC.
Position N 37°37' W 073°47'.
Warning: this ship's position is 57 days out of date.

Length 243 m; draft 8.1 m.

Type: Tanker. MMSI: 241357000.

Date/timePositionNaut miles runAvg speedWind from/ knotsBaromVisibWave heightAir tempDewpointWater temp
2018-May-20 00:03N 37°37' W 073°47'211.6
2018-May-19 23:52N 37°39' W 073°49'411.0
2018-May-19 23:28N 37°42' W 073°52'8711.8
2018-May-19 16:07N 38°48' W 075°04'111.0
2018-May-19 16:00N 38°50' W 075°05'510.2
2018-May-19 15:30N 38°55' W 075°06'612.7
2018-May-19 15:00N 39°01' W 075°09'612.7
2018-May-19 14:30N 39°06' W 075°12'713.2
2018-May-19 14:01N 39°12' W 075°17'713.3
2018-May-19 13:30N 39°17' W 075°22'815.3
2018-May-19 13:01N 39°23' W 075°28'815.2
2018-May-19 12:30N 39°29' W 075°34'612.8
2018-May-19 12:00N 39°36' W 075°34'611.7
2018-May-19 11:31N 39°41' W 075°31'613.0
2018-May-19 11:00N 39°47' W 075°28'5 9.0
2018-May-19 10:30N 39°49' W 075°23'5 9.7
2018-May-19 10:00N 39°51' W 075°17'3 5.9
2018-May-19 09:30N 39°52' W 075°13'0 0.1
2018-May-19 09:00N 39°52' W 075°13'0 0.0
2018-May-19 08:30N 39°52' W 075°13'0 0.0
2018-May-19 08:00N 39°52' W 075°13'0 0.0
2018-May-19 07:30N 39°52' W 075°13'0 0.0
2018-May-19 07:00N 39°52' W 075°13'0 0.0
2018-May-19 06:30N 39°52' W 075°13'0 0.0
2018-May-19 06:00N 39°52' W 075°13'0 0.0
2018-May-19 05:30N 39°52' W 075°13'0 0.0
2018-May-19 05:00N 39°52' W 075°13'0 0.0
2018-May-19 04:30N 39°52' W 075°13'0 0.0
2018-May-19 04:00N 39°52' W 075°13'0 0.0
2018-May-19 03:30N 39°52' W 075°13'0 0.0
2018-May-19 03:00N 39°52' W 075°13'0 0.0
2018-May-19 02:30N 39°52' W 075°13'0 0.0
2018-May-19 02:00N 39°52' W 075°13'0 0.0
2018-May-19 01:30N 39°52' W 075°13'0 0.0
2018-May-19 01:00N 39°52' W 075°13'0 0.0
2018-May-19 00:30N 39°52' W 075°13'0 0.0
2018-May-19 00:00N 39°52' W 075°13'0 0.0
2018-May-18 23:30N 39°52' W 075°13'0 0.0
2018-May-18 23:00N 39°52' W 075°13'0 0.0
2018-May-18 22:30N 39°52' W 075°13'0 0.1
2018-May-18 22:00N 39°52' W 075°13'0 0.1
2018-May-18 21:30N 39°52' W 075°13'0 0.0
2018-May-18 20:48N 39°52' W 075°13'0 0.0
2018-May-18 20:30N 39°52' W 075°13'0 0.0
2018-May-18 19:57N 39°52' W 075°13'0 0.0
2018-May-18 19:30N 39°52' W 075°13'0 0.0
2018-May-18 19:00N 39°52' W 075°13'0 0.0
2018-May-18 18:30N 39°52' W 075°13'0 0.0
2018-May-18 18:00N 39°52' W 075°13'0 0.0
2018-May-18 17:30N 39°52' W 075°13'0 0.0
2018-May-18 17:00N 39°52' W 075°13'0 0.0
2018-May-18 16:30N 39°52' W 075°13'0 0.0
2018-May-18 16:00N 39°52' W 075°13'0 0.0
2018-May-18 15:30N 39°52' W 075°13'0 0.0
2018-May-18 14:57N 39°52' W 075°13'0 0.0
2018-May-18 14:30N 39°52' W 075°13'0 0.0
2018-May-18 14:00N 39°52' W 075°13'0 0.0
2018-May-18 13:30N 39°52' W 075°13'0 0.0
2018-May-18 13:00N 39°52' W 075°13'0 0.0
2018-May-18 12:30N 39°52' W 075°13'0 0.0
2018-May-18 12:00N 39°52' W 075°13'0 0.0
2018-May-18 11:27N 39°52' W 075°13'0 0.0
2018-May-18 11:00N 39°52' W 075°13'0 0.0
2018-May-18 10:30N 39°52' W 075°13'0 0.0
2018-May-18 10:00N 39°52' W 075°13'0 0.0
2018-May-18 09:30N 39°52' W 075°13'0 0.0
2018-May-18 09:00N 39°52' W 075°13'0 0.0
2018-May-18 08:30N 39°52' W 075°13'0 0.0
2018-May-18 08:00N 39°52' W 075°13'0 0.0
2018-May-18 07:30N 39°52' W 075°13'0 0.0
2018-May-18 07:00N 39°52' W 075°13'0 0.5
2018-May-18 06:30N 39°52' W 075°13'1 2.9
2018-May-18 06:01N 39°51' W 075°15'3 6.0
2018-May-18 05:30N 39°51' W 075°19'4 7.1
2018-May-18 05:00N 39°49' W 075°23'3 7.0
2018-May-18 04:30N 39°47' W 075°27'4 7.0
2018-May-18 04:00N 39°45' W 075°30'4 7.9
2018-May-18 03:30N 39°41' W 075°31'5 9.8
2018-May-18 03:00N 39°37' W 075°35'610.6
2018-May-18 02:28N 39°31' W 075°33'510.3
2018-May-18 02:01N 39°27' W 075°33'611.4
2018-May-18 01:30N 39°22' W 075°28'612.5
2018-May-18 01:00N 39°18' W 075°23'612.8
2018-May-18 00:30N 39°13' W 075°17'714.1
2018-May-18 00:00N 39°07' W 075°13'713.8
2018-May-17 23:30N 39°01' W 075°09'713.0
2018-May-17 22:59N 38°54' W 075°06'4 8.8
2018-May-17 22:30N 38°56' W 075°11'3 5.3
2018-May-17 22:00N 38°59' W 075°12'0 0.0
2018-May-17 21:30N 38°59' W 075°12'0 0.0
2018-May-17 21:00N 38°59' W 075°12'0 0.1
2018-May-17 20:27N 38°59' W 075°12'0 0.1
2018-May-17 20:00N 38°59' W 075°12'0 0.0
2018-May-17 19:30N 38°59' W 075°12'0 0.0
2018-May-17 19:00N 38°59' W 075°12'0 0.0
2018-May-17 18:21N 38°59' W 075°12'0 0.0
2018-May-17 18:00N 38°59' W 075°12'0 0.1
2018-May-17 17:30N 38°59' W 075°12'0 0.5
2018-May-17 17:00N 38°59' W 075°12'0 0.1
2018-May-17 16:27N 38°59' W 075°12'0 0.1
2018-May-17 15:57N 38°59' W 075°12'0 0.0
2018-May-17 15:27N 38°59' W 075°12'0 0.0
2018-May-17 14:57N 38°59' W 075°12'0 0.0
2018-May-17 14:30N 38°59' W 075°12'0 0.0
2018-May-17 13:57N 38°59' W 075°12'0 0.0
2018-May-17 13:30N 38°59' W 075°12'0 0.1
2018-May-17 12:57N 38°59' W 075°12'0 0.2
2018-May-17 12:30N 38°59' W 075°12'0 0.1
2018-May-17 11:54N 38°59' W 075°12'0 0.3
2018-May-17 11:24N 38°59' W 075°12'0 0.3
2018-May-17 11:00N 38°59' W 075°12'0 0.1
2018-May-17 10:30N 38°59' W 075°12'0 0.1
2018-May-17 09:48N 38°59' W 075°12'0 0.1
2018-May-17 09:27N 38°59' W 075°12'0 0.0
2018-May-17 08:42N 38°59' W 075°12'0 0.0
2018-May-17 08:18N 38°59' W 075°12'0 0.0
2018-May-17 08:00N 38°59' W 075°12'0 0.0
2018-May-17 07:27N 38°59' W 075°12'0 0.1
2018-May-17 07:00N 38°59' W 075°12'0 0.1
2018-May-17 06:30N 38°59' W 075°12'0 0.0
2018-May-17 06:00N 38°59' W 075°12'0 0.0
2018-May-17 05:30N 38°59' W 075°12'0 0.4
2018-May-17 05:00N 38°59' W 075°12'0 0.3
2018-May-17 04:30N 38°59' W 075°12'0 0.0
2018-May-17 03:39N 38°59' W 075°12'0 0.1
2018-May-17 03:27N 38°59' W 075°12'0 0.0
2018-May-17 02:57N 38°59' W 075°12'0 0.0
2018-May-17 02:27N 38°59' W 075°12'0 0.0
2018-May-17 01:57N 38°59' W 075°12'0 0.0
2018-May-17 01:30N 38°59' W 075°13'0 0.0
2018-May-17 01:00N 38°59' W 075°12'0 0.1
2018-May-17 00:30N 38°59' W 075°12'0 0.0
2018-May-16 23:57N 38°59' W 075°12'0 0.1
2018-May-16 23:30N 38°59' W 075°12'0 0.0
2018-May-16 23:00N 38°59' W 075°12'0 0.1
2018-May-16 22:30N 38°59' W 075°12'0 0.4
2018-May-16 22:00N 38°59' W 075°12'0 0.1
2018-May-16 21:30N 38°59' W 075°12'0 0.1
2018-May-16 21:00N 38°59' W 075°12'0 0.0
2018-May-16 20:30N 38°59' W 075°12'0 0.0
2018-May-16 20:00N 38°59' W 075°12'0 0.0
2018-May-16 19:30N 38°59' W 075°12'0 0.0
2018-May-16 18:57N 38°59' W 075°12'0 0.0
2018-May-16 18:30N 38°59' W 075°12'0 0.1
2018-May-16 17:57N 38°59' W 075°12'0 0.1
2018-May-16 17:30N 38°59' W 075°12'0 0.0
2018-May-16 17:00N 38°59' W 075°12'0 0.2
2018-May-16 16:30N 38°59' W 075°12'0 0.4
2018-May-16 16:00N 38°59' W 075°12'0 0.0
2018-May-16 15:30N 38°59' W 075°12'0 0.1
2018-May-16 15:00N 38°59' W 075°12'0 0.0
2018-May-15 22:49N 38°59' W 075°12'0 0.0
2018-May-15 22:24N 38°59' W 075°12'0 0.1
2018-May-15 22:00N 38°59' W 075°12'0 0.1
2018-May-15 21:30N 38°59' W 075°12'0 0.4
2018-May-15 20:58N 38°59' W 075°12'0 0.3
2018-May-15 20:22N 38°59' W 075°12'0 0.1
2018-May-15 19:57N 38°59' W 075°12'0 0.1
2018-May-15 19:30N 38°59' W 075°12'0 0.1
2018-May-15 18:57N 38°59' W 075°12'0 0.0
2018-May-15 18:24N 38°59' W 075°12'0 0.0
2018-May-15 18:00N 38°59' W 075°12'0 0.0
2018-May-15 17:30N 38°59' W 075°12'0 0.1
2018-May-15 16:54N 38°59' W 075°12'0 0.0
2018-May-15 16:30N 38°59' W 075°12'0 0.1
2018-May-15 16:00N 38°59' W 075°12'0 0.1
2018-May-15 15:30N 38°59' W 075°12'0 0.5
2018-May-15 15:00N 38°59' W 075°12'2 4.8
2018-May-15 14:30N 38°56' W 075°11'4 7.4
2018-May-15 13:57N 38°53' W 075°08'7 9.9
2018-May-15 13:16N 38°48' W 075°02'2 8.1
2018-May-15 13:00N 38°46' W 074°60'16 6.5
2018-May-15 10:33N 38°35' W 074°47'3 9.9
2018-May-15 10:17N 38°33' W 074°45'412.7
2018-May-15 09:58N 38°29' W 074°41'510.7
2018-May-15 09:30N 38°26' W 074°37'3 5.8
2018-May-15 09:00N 38°24' W 074°34'612.7
2018-May-15 08:30N 38°20' W 074°28'612.5
2018-May-15 08:00N 38°16' W 074°21'612.1
2018-May-15 07:30N 38°14' W 074°14'  

Dump ship's entire track history